Rapports des METAR proches

 

LFAQ - Bray, France
Distance from station: SSO 19km
Mise à jour: 24/07/2021 17:00
Orage
Orage
 Vent SO
Vent: SO 9 km/h
Température: 24°C
Point de rosée: 13°C
Humidité: 50%
Baromètre: 1008 hPa
Clouds: Orage
Visibility: 10 km
2021/07/24 15:00 LFAQ 241500Z AUTO 22005KT 9999 ///CB 24/13 Q1008 TEMPO 19020G35KT TSRA
LFQQ - Lille/Lesquin, France
Distance from station: NNE 53km
Mise à jour: 24/07/2021 17:00
Orage
Orage
 Vent ESE
Vent: ESE 9 km/h
Température: 24°C
Point de rosée: 18°C
Humidité: 69%
Baromètre: 1008 hPa
Clouds: Orage
Visibility: 10 km
2021/07/24 15:00 LFQQ 241500Z AUTO 11005KT 060V140 9999 ///CB 24/18 Q1008 TEMPO 1500 TSRA
EBCV - Chievres Ab, Belgium
Distance from station: NE 88km
Mise à jour: 24/07/2021 16:55
Très nuageux
Très nuageux
 Vent SSO
Vent: SSO 15 km/h
Température: 23°C
Point de rosée: 15°C
Humidité: 61%
Baromètre: 1008 hPa
Clouds: Très nuageux
Cloud details: Quelques nuages 1311 m
Très nuageux 2835 m
Très nuageux 3353 m
2021/07/24 14:55 EBCV 241455Z AUTO 20008KT //// FEW043/// BKN093/// BKN110/// 23/15 Q1008 BLU
 
LFOB - Beauvais/Tille(A, France
Distance from station: SSO 88km
Mise à jour: 24/07/2021 17:00
Quelques nuages
Quelques nuages
 Vent SSE
Vent: SSE 13 km/h
Température: 25°C
Point de rosée: 14°C
Humidité: 51%
Baromètre: 1008 hPa
Clouds: Quelques nuages
Visibility: 10 km
Cloud details: Quelques nuages 1463 m
2021/07/24 15:00 LFOB 241500Z AUTO 16007KT 130V190 9999 FEW048 25/14 Q1008 TEMPO 18020G35KT 1500 TSRA BKN013 BKN030CB
LFAT - Le Touquet/P. Pl, France
Distance from station: ONO 93km
Mise à jour: 24/07/2021 17:00
Clair
Clair
 Vent NO
Vent: NO 13 km/h
Température: 21°C
Point de rosée: 16°C
Humidité: 73%
Baromètre: 1008 hPa
Résumé: Clair
Visibility: greater than 10 km
2021/07/24 15:00 LFAT 241500Z AUTO 32007KT CAVOK 21/16 Q1008 NOSIG
EBFN - Koksijde (bel-Af, Belgium
Distance from station: N 105km
Mise à jour: 24/07/2021 16:55
Très nuageux
Très nuageux
 Vent varies
Vent: varies 0 km/h
Température: 20°C
Point de rosée: 16°C
Humidité: 78%
Baromètre: 1008 hPa
Clouds: Très nuageux
Visibility: 10 km
Cloud details: Quelques nuages 3353 m
Très nuageux 4267 m
2021/07/24 14:55 EBFN 241455Z AUTO //////KT 9999 FEW110/// BKN140/// 20/16 Q1008 BLU
 
EBOS - Oostende Airport, Belgium
Distance from station: N 119km
Mise à jour: 24/07/2021 16:50
Pluie faible, Averses, Quelques nuages
Pluie faible, Averses, Quelques nuages
 Vent ONO
Vent: ONO 19 km/h
Température: 19°C
Point de rosée: 16°C
Humidité: 83%
Baromètre: 1009 hPa
Résumé: Pluie faible, Averses
Clouds: Quelques nuages
Visibility: 9 km
Cloud details: Quelques nuages 640 m
2021/07/24 14:50 EBOS 241450Z 30010KT 9000 -SHRA FEW021TCU 19/16 Q1009 TEMPO 4000 SHRA
EBCI - Charleroi/Gossel, Belgium
Distance from station: ENE 124km
Mise à jour: 24/07/2021 16:50
Orage léger, Pluie, Partiellement nuageux
Orage léger, Pluie, Partiellement nuageux
 Vent ESE
Vent: ESE 17 km/h
Température: 22°C
Point de rosée: 18°C
Humidité: 78%
Baromètre: 1009 hPa
Résumé: Orage léger, Pluie
Clouds: Partiellement nuageux
Visibility: 10 km
Cloud details: Partiellement nuageux 762 m
2021/07/24 14:50 EBCI 241450Z 12009KT 090V150 9999 -TSRA SCT025CB 22/18 Q1009 TEMPO 2500 TSRA
LFPG - Charles De Gaull, France
Distance from station: S 125km
Mise à jour: 24/07/2021 17:00
Très nuageux
Très nuageux
 Vent varies
Vent: varies 13 km/h, Rafale: 35 km/h
Température: 25°C
Point de rosée: 12°C
Humidité: 44%
Baromètre: 1008 hPa
Clouds: Très nuageux
Visibility: 10 km
Cloud details: Partiellement nuageux 1402 m
Très nuageux 2012 m
Très nuageux 7925 m
2021/07/24 15:00 LFPG 241500Z VRB07G19KT 9999 SCT046 BKN066 BKN260 25/12 Q1008 TEMPO 21015G25KT 4000 SHRA SCT040TCU
 
LFPT - Cormeilles Vexin, France
Distance from station: SSO 127km
Mise à jour: 24/07/2021 17:00
Orage, Orage
Orage, Orage
 Vent SO
Vent: SO 9 km/h
Température: 25°C
Point de rosée: 15°C
Humidité: 54%
Baromètre: 1008 hPa
Résumé: Orage
Clouds: Orage
Visibility: 10 km
2021/07/24 15:00 LFPT 241500Z AUTO 23005KT 180V320 9999 TS ///CB 25/15 Q1008
LFPB - Paris/Le Bourget, France
Distance from station: S 132km
Mise à jour: 24/07/2021 17:00
Orages avoisinants, Orage
Orages avoisinants, Orage
 Vent S
Vent: S 22 km/h
Température: 26°C
Point de rosée: 13°C
Humidité: 45%
Baromètre: 1008 hPa
Résumé: Orages avoisinants
Clouds: Orage
Visibility: 10 km
Cloud details: Quelques nuages 1402 m
Partiellement nuageux 1768 m
Très nuageux 5182 m
2021/07/24 15:00 LFPB 241500Z AUTO 18012KT 140V220 9999 VCTS FEW046/// SCT058/// BKN170/// ///CB 26/13 Q1008 TEMPO 21015G35KT 2500 TSRAGS
EBFS - Florennes (bel-A, Belgium
Distance from station: E 133km
Mise à jour: 24/07/2021 16:55
Pluie faible, Très nuageux
Pluie faible, Très nuageux
 Vent O
Vent: O 13 km/h
Température: 19°C
Point de rosée: 15°C
Humidité: 78%
Baromètre: 1009 hPa
Résumé: Pluie faible
Clouds: Très nuageux
Visibility: 10 km
Cloud details: Quelques nuages 975 m
Partiellement nuageux 2438 m
Très nuageux 3048 m
2021/07/24 14:55 EBFS 241455Z AUTO 27007KT 9999 -RA FEW032/// SCT080/// BKN100/// 19/15 Q1009 BLU
 
LFQA - Reims/Prunay, France
Distance from station: SE 143km
Mise à jour: 24/07/2021 17:00
Pluie faible, Orages avoisinants, Orage
Pluie faible, Orages avoisinants, Orage
 Vent O
Vent: O 13 km/h
Température: 21°C
Point de rosée: 15°C
Humidité: 69%
Baromètre: 1009 hPa
Résumé: Pluie faible, Orages avoisinants
Clouds: Orage
Visibility: 10 km
2021/07/24 15:00 LFQA 241500Z AUTO 27007KT 240V300 9999 -RA VCTS ///CB 21/15 Q1009
LFOP - Rouen/Boos (aut), France
Distance from station: SO 144km
Mise à jour: 24/07/2021 17:00
Clair
Clair
 Vent SSO
Vent: SSO 17 km/h
Température: 25°C
Point de rosée: 14°C
Humidité: 51%
Baromètre: 1008 hPa
Résumé: Clair
Visibility: greater than 10 km
2021/07/24 15:00 LFOP 241500Z AUTO 21009KT 180V240 CAVOK 25/14 Q1008 TEMPO 18020G35KT 1500 TSRA BKN013 BKN030CB
EBBR - Brussels Nationa, Belgium
Distance from station: NE 148km
Mise à jour: 24/07/2021 16:50
Clair
Clair
 Vent S
Vent: S 6 km/h
Température: 23°C
Point de rosée: 18°C
Humidité: 74%
Baromètre: 1009 hPa
Résumé: Clair
Visibility: greater than 10 km
2021/07/24 14:50 EBBR 241450Z 17003KT 120V200 CAVOK 23/18 Q1009 TEMPO 2500 SHRA
 
EBBE - Beauvechain (baf, Belgium
Distance from station: ENE 156km
Mise à jour: 24/07/2021 16:55
Très nuageux
Très nuageux
 Vent SE
Vent: SE 7 km/h
Température: 22°C
Point de rosée: 18°C
Humidité: 78%
Baromètre: 1009 hPa
Clouds: Très nuageux
Visibility: 10 km
Cloud details: Très nuageux 2286 m
Très nuageux 3962 m
2021/07/24 14:55 EBBE 241455Z AUTO 14004KT 9999 BKN075/// BKN130/// 22/18 Q1009 BLU
EHFS - Vlissingen, Netherlands
Distance from station: NNE 157km
Mise à jour: 24/07/2021 16:55
Partiellement nuageux
Partiellement nuageux
 Vent NE
Vent: NE 9 km/h
Température: 22°C
Point de rosée: 17°C
Humidité: 73%
Baromètre: 1008 hPa
Clouds: Partiellement nuageux
Visibility: 10 km
2021/07/24 14:55 EHFS 241455Z AUTO 05005KT 020V080 9999 NSC 22/17 Q1008
LFPV - Villacoublay/Vel, France
Distance from station: SSO 157km
Mise à jour: 24/07/2021 17:00
Orage
Orage
 Vent OSO
Vent: OSO 17 km/h
Température: 23°C
Point de rosée: 13°C
Humidité: 53%
Baromètre: 1009 hPa
Clouds: Orage
Visibility: 10 km
Cloud details: Quelques nuages 1341 m
Très nuageux 4572 m
Très nuageux 5791 m
2021/07/24 15:00 LFPV 241500Z AUTO 24009KT 200V260 9999 FEW044/// BKN150/// BKN190/// ///CB 23/13 Q1009 TEMPO VRB15G25KT 4000 SHRA
 
EGMD - Lydd Airport, United Kingdom
Distance from station: NO 160km
Mise à jour: 24/07/2021 16:50
Quelques nuages
Quelques nuages
 Vent SSO
Vent: SSO 17 km/h
Température: 22°C
Point de rosée: 17°C
Humidité: 73%
Baromètre: 1008 hPa
Clouds: Quelques nuages
Visibility: 10 km
Cloud details: Quelques nuages 762 m
2021/07/24 14:50 EGMD 241450Z 21009KT 9999 FEW025 22/17 Q1008